createdAt,value
2023-09-10T00:01:02.795Z,101128.29
2023-09-10T00:03:36.286Z,101127.41
2023-09-10T00:05:49.066Z,101126.45
2023-09-10T00:08:02.989Z,101123.77
2023-09-10T00:10:16.382Z,101123.30
2023-09-10T00:12:28.971Z,101123.21
2023-09-10T00:14:41.760Z,101119.91
2023-09-10T00:16:54.409Z,101120.86
2023-09-10T00:19:06.987Z,101116.49
2023-09-10T00:21:19.438Z,101117.88
2023-09-10T00:23:32.282Z,101117.86
2023-09-10T00:25:44.782Z,101116.89
2023-09-10T00:27:57.220Z,101120.70
2023-09-10T00:30:10.676Z,101114.39
2023-09-10T00:32:24.331Z,101119.55
2023-09-10T00:34:39.170Z,101114.73
2023-09-10T00:36:52.902Z,101114.66
2023-09-10T00:39:05.630Z,101113.86
2023-09-10T00:41:18.148Z,101111.63
2023-09-10T00:43:30.486Z,101111.08
2023-09-10T00:45:43.308Z,101109.81
2023-09-10T00:47:56.295Z,101108.00
2023-09-10T00:50:11.785Z,101106.93
2023-09-10T00:52:25.247Z,101102.06
2023-09-10T00:54:39.725Z,101112.92
2023-09-10T00:56:52.294Z,101108.49
2023-09-10T00:59:05.052Z,101109.67
2023-09-10T01:01:17.812Z,101108.00
2023-09-10T01:03:31.471Z,101111.98
2023-09-10T01:05:44.936Z,101111.39
2023-09-10T01:07:57.915Z,101116.16
2023-09-10T01:10:11.701Z,101114.83
2023-09-10T01:12:35.546Z,101119.02
2023-09-10T01:14:54.256Z,101117.52
2023-09-10T01:17:12.863Z,101114.45
2023-09-10T01:19:50.112Z,101112.67
2023-09-10T01:22:10.037Z,101115.45
2023-09-10T01:24:29.279Z,101115.27
2023-09-10T01:26:44.647Z,101113.21
2023-09-10T01:28:57.021Z,101116.80
2023-09-10T01:31:09.526Z,101116.69
2023-09-10T01:33:29.666Z,101117.42
2023-09-10T01:35:49.984Z,101116.08
2023-09-10T01:38:06.834Z,101116.77
2023-09-10T01:40:24.948Z,101116.31
2023-09-10T01:42:39.131Z,101115.69
2023-09-10T01:44:52.691Z,101115.05
2023-09-10T01:47:06.674Z,101116.30
2023-09-10T01:49:19.358Z,101123.51
2023-09-10T01:51:31.846Z,101118.92
2023-09-10T01:53:44.464Z,101121.14
2023-09-10T01:55:57.077Z,101123.31
2023-09-10T01:58:10.862Z,101124.60
2023-09-10T02:00:24.222Z,101125.59
2023-09-10T02:02:36.820Z,101125.91
2023-09-10T02:04:49.346Z,101125.45
2023-09-10T02:07:01.781Z,101126.30
2023-09-10T02:09:14.209Z,101126.61
2023-09-10T02:11:27.442Z,101126.52
2023-09-10T02:13:40.082Z,101128.55
2023-09-10T02:15:53.473Z,101127.81
2023-09-10T02:18:05.929Z,101129.41
2023-09-10T02:20:20.021Z,101127.84
2023-09-10T02:22:32.854Z,101129.16
2023-09-10T02:24:45.565Z,101133.27
2023-09-10T02:26:58.025Z,101139.05
2023-09-10T02:29:10.837Z,101135.31
2023-09-10T02:31:25.095Z,101136.06
2023-09-10T02:33:37.578Z,101139.33
2023-09-10T02:35:50.077Z,101137.78
2023-09-10T02:38:02.522Z,101137.08
2023-09-10T02:40:16.293Z,101138.66
2023-09-10T02:42:28.730Z,101144.90
2023-09-10T02:44:41.875Z,101146.55
2023-09-10T02:46:54.799Z,101144.30
2023-09-10T02:49:07.537Z,101149.14
2023-09-10T02:51:19.834Z,101149.52
2023-09-10T02:53:32.331Z,101150.86
2023-09-10T02:55:45.076Z,101150.48
2023-09-10T02:57:57.420Z,101151.58
2023-09-10T03:00:13.457Z,101151.77
2023-09-10T03:02:26.597Z,101152.33
2023-09-10T03:04:39.011Z,101157.45
2023-09-10T03:06:52.110Z,101164.70
2023-09-10T03:09:05.038Z,101167.45
2023-09-10T03:11:17.573Z,101169.37
2023-09-10T03:13:30.009Z,101172.89
2023-09-10T03:15:42.704Z,101176.10
2023-09-10T03:17:55.011Z,101181.65
2023-09-10T03:20:11.512Z,101182.91
2023-09-10T03:22:23.849Z,101184.40
2023-09-10T03:24:37.447Z,101187.31
2023-09-10T03:26:51.002Z,101187.95
2023-09-10T03:29:03.872Z,101189.54
2023-09-10T03:31:18.825Z,101190.38
2023-09-10T03:33:32.667Z,101191.96
2023-09-10T03:35:45.687Z,101190.43
2023-09-10T03:37:58.539Z,101190.06
2023-09-10T03:40:14.303Z,101195.10
2023-09-10T03:42:27.248Z,101195.77
2023-09-10T03:44:39.992Z,101200.01
2023-09-10T03:46:54.119Z,101198.11
2023-09-10T03:49:07.051Z,101200.10
2023-09-10T03:51:19.398Z,101198.50
2023-09-10T03:53:31.948Z,101200.98
2023-09-10T03:55:44.844Z,101202.00
2023-09-10T03:57:57.505Z,101198.48
2023-09-10T04:00:12.990Z,101195.58
2023-09-10T04:02:26.891Z,101192.51
2023-09-10T04:04:39.742Z,101194.96
2023-09-10T04:06:52.878Z,101194.41
2023-09-10T04:09:05.911Z,101199.27
2023-09-10T04:11:18.626Z,101202.33
2023-09-10T04:13:31.902Z,101214.30
2023-09-10T04:15:45.348Z,101220.33
2023-09-10T04:17:57.656Z,101215.89
2023-09-10T04:20:12.278Z,101221.00
2023-09-10T04:22:25.098Z,101225.09
2023-09-10T04:24:37.916Z,101226.88
2023-09-10T04:26:50.437Z,101227.79
2023-09-10T04:29:03.328Z,101229.77
2023-09-10T04:31:19.821Z,101224.11
2023-09-10T04:33:32.671Z,101224.78
2023-09-10T04:35:51.014Z,101226.99
2023-09-10T04:38:05.761Z,101229.03
2023-09-10T04:40:18.939Z,101235.05
2023-09-10T04:42:33.772Z,101233.55
2023-09-10T04:44:48.034Z,101237.08
2023-09-10T04:47:00.648Z,101238.89
2023-09-10T04:49:13.541Z,101242.27
2023-09-10T04:51:26.019Z,101244.46
2023-09-10T04:53:39.071Z,101243.77
2023-09-10T04:55:57.832Z,101246.50
2023-09-10T04:58:11.435Z,101252.35
2023-09-10T05:00:24.963Z,101260.42
2023-09-10T05:02:38.092Z,101259.21
2023-09-10T05:04:51.502Z,101259.86
2023-09-10T05:07:04.006Z,101260.04
2023-09-10T05:09:16.314Z,101260.08
2023-09-10T05:11:29.095Z,101264.39
2023-09-10T05:13:42.862Z,101268.36
2023-09-10T05:15:57.106Z,101271.47
2023-09-10T05:18:11.015Z,101273.38
2023-09-10T05:20:23.751Z,101273.23
2023-09-10T05:22:36.226Z,101270.60
2023-09-10T05:24:49.117Z,101272.73
2023-09-10T05:27:01.513Z,101272.70
2023-09-10T05:29:14.003Z,101275.80
2023-09-10T05:31:26.404Z,101274.19
2023-09-10T05:33:39.147Z,101273.42
2023-09-10T05:36:02.659Z,101275.62
2023-09-10T05:38:16.449Z,101274.31
2023-09-10T05:40:29.897Z,101278.48
2023-09-10T05:42:42.452Z,101278.55
2023-09-10T05:44:57.042Z,101281.51
2023-09-10T05:47:09.771Z,101281.76
2023-09-10T05:49:22.712Z,101284.38
2023-09-10T05:51:35.550Z,101287.36
2023-09-10T05:53:48.307Z,101284.86
2023-09-10T05:56:00.815Z,101288.91
2023-09-10T05:58:13.583Z,101287.88
2023-09-10T06:00:28.056Z,101283.36
2023-09-10T06:02:40.852Z,101287.23
2023-09-10T06:04:54.180Z,101284.28
2023-09-10T06:07:07.888Z,101292.95
2023-09-10T06:09:20.700Z,101290.58
2023-09-10T06:11:33.131Z,101288.21
2023-09-10T06:13:45.464Z,101285.86
2023-09-10T06:15:58.040Z,101286.27
2023-09-10T06:18:10.819Z,101289.83
2023-09-10T06:20:23.341Z,101293.05
2023-09-10T06:22:36.304Z,101293.47
2023-09-10T06:24:49.000Z,101293.38
2023-09-10T06:27:01.798Z,101295.82
2023-09-10T06:29:14.295Z,101296.41
2023-09-10T06:31:27.058Z,101298.46
2023-09-10T06:33:39.504Z,101296.86
2023-09-10T06:35:52.068Z,101297.54
2023-09-10T06:38:04.865Z,101297.36
2023-09-10T06:40:18.655Z,101299.90
2023-09-10T06:42:31.372Z,101307.20
2023-09-10T06:44:54.071Z,101310.84
2023-09-10T06:47:06.808Z,101312.79
2023-09-10T06:49:19.392Z,101313.00
2023-09-10T06:51:32.965Z,101303.77
2023-09-10T06:53:45.595Z,101308.71
2023-09-10T06:55:58.074Z,101302.29
2023-09-10T06:58:10.557Z,101300.56
2023-09-10T07:00:24.348Z,101301.13
2023-09-10T07:02:36.719Z,101297.79
2023-09-10T07:04:51.346Z,101300.19
2023-09-10T07:07:04.684Z,101301.03
2023-09-10T07:09:18.014Z,101302.08
2023-09-10T07:11:30.241Z,101301.61
2023-09-10T07:13:42.913Z,101300.17
2023-09-10T07:15:55.174Z,101296.70
2023-09-10T07:18:08.455Z,101301.30
2023-09-10T07:20:21.379Z,101299.65
2023-09-10T07:22:35.240Z,101302.68
2023-09-10T07:24:47.809Z,101307.88
2023-09-10T07:27:01.125Z,101310.77
2023-09-10T07:29:18.125Z,101312.55
2023-09-10T07:31:30.476Z,101310.15
2023-09-10T07:33:42.902Z,101307.95
2023-09-10T07:35:55.318Z,101306.27
2023-09-10T07:38:08.320Z,101309.33
2023-09-10T07:40:21.716Z,101305.17
2023-09-10T07:42:34.277Z,101299.09
2023-09-10T07:44:46.872Z,101302.42
2023-09-10T07:46:59.356Z,101304.41
2023-09-10T07:49:11.986Z,101309.44
2023-09-10T07:51:24.445Z,101309.92
2023-09-10T07:53:37.043Z,101308.65
2023-09-10T07:55:49.497Z,101306.67
2023-09-10T07:58:02.009Z,101304.48
2023-09-10T08:00:17.326Z,101308.20
2023-09-10T08:02:31.021Z,101306.77
2023-09-10T08:04:43.429Z,101307.60
2023-09-10T08:06:55.738Z,101310.90
2023-09-10T08:09:09.037Z,101313.11
2023-09-10T08:11:21.564Z,101309.87
2023-09-10T08:13:34.040Z,101311.24
2023-09-10T08:15:46.493Z,101310.98
2023-09-10T08:18:02.707Z,101309.50
2023-09-10T08:20:17.553Z,101308.37
2023-09-10T08:22:29.951Z,101314.67
2023-09-10T08:24:44.981Z,101314.90
2023-09-10T08:26:57.639Z,101310.52
2023-09-10T08:29:10.736Z,101307.54
2023-09-10T08:31:24.144Z,101308.55
2023-09-10T08:33:36.641Z,101311.63
2023-09-10T08:35:56.066Z,101314.70
2023-09-10T08:38:08.850Z,101311.88
2023-09-10T08:40:22.171Z,101309.69
2023-09-10T08:42:41.613Z,101309.41
2023-09-10T08:44:58.835Z,101307.69
2023-09-10T08:47:16.830Z,101307.19
2023-09-10T08:49:35.986Z,101303.59
2023-09-10T08:51:48.830Z,101304.58
2023-09-10T08:54:05.268Z,101300.82
2023-09-10T08:56:18.949Z,101299.09
2023-09-10T08:58:33.291Z,101294.05
2023-09-10T09:00:47.072Z,101296.14
2023-09-10T09:03:00.102Z,101296.41
2023-09-10T09:05:14.178Z,101298.73
2023-09-10T09:07:31.017Z,101301.16
2023-09-10T09:09:46.586Z,101300.80
2023-09-10T09:12:00.091Z,101299.08
2023-09-10T09:14:15.255Z,101297.34
2023-09-10T09:16:27.968Z,101295.65
2023-09-10T09:18:42.148Z,101292.66
2023-09-10T09:20:56.282Z,101290.15
2023-09-10T09:23:17.137Z,101290.02
2023-09-10T09:25:31.000Z,101282.39
2023-09-10T09:27:44.979Z,101283.13
2023-09-10T09:29:58.489Z,101278.63
2023-09-10T09:32:12.083Z,101276.05
2023-09-10T09:34:24.435Z,101275.05
2023-09-10T09:36:39.310Z,101272.48
2023-09-10T09:38:52.961Z,101271.31
2023-09-10T09:41:08.760Z,101271.25
2023-09-10T09:43:21.620Z,101267.72
2023-09-10T09:45:35.001Z,101270.73
2023-09-10T09:47:52.766Z,101271.39
2023-09-10T09:50:06.054Z,101269.89
2023-09-10T09:52:19.966Z,101267.70
2023-09-10T09:54:33.154Z,101270.25
2023-09-10T09:56:46.324Z,101267.81
2023-09-10T09:59:04.358Z,101261.23
2023-09-10T10:01:16.872Z,101252.61
2023-09-10T10:03:29.582Z,101247.48
2023-09-10T10:05:43.227Z,101251.84
2023-09-10T10:07:56.744Z,101253.14
2023-09-10T10:10:12.423Z,101253.16
2023-09-10T10:12:25.447Z,101255.63
2023-09-10T10:14:38.552Z,101258.52
2023-09-10T10:16:52.175Z,101262.95
2023-09-10T10:19:05.071Z,101262.64
2023-09-10T10:21:18.294Z,101260.52
2023-09-10T10:23:32.638Z,101260.36
2023-09-10T10:25:47.819Z,101261.19
2023-09-10T10:28:01.850Z,101258.96
2023-09-10T10:30:16.219Z,101256.38
2023-09-10T10:32:33.777Z,101260.73
2023-09-10T10:34:54.551Z,101264.95
2023-09-10T10:37:14.204Z,101260.27
2023-09-10T10:39:35.705Z,101260.44
2023-09-10T10:41:57.223Z,101260.44
2023-09-10T10:44:26.130Z,101259.88
2023-09-10T10:46:42.143Z,101265.50
2023-09-10T10:48:55.263Z,101264.56
2023-09-10T10:51:11.856Z,101262.27
2023-09-10T10:53:25.977Z,101266.23
2023-09-10T10:55:39.715Z,101270.52
2023-09-10T10:57:52.257Z,101266.23
2023-09-10T11:00:06.694Z,101274.09
2023-09-10T11:02:27.432Z,101274.25
2023-09-10T11:04:40.060Z,101276.77
2023-09-10T11:07:17.523Z,101279.94
2023-09-10T11:09:44.863Z,101283.74
2023-09-10T11:11:57.340Z,101284.37
2023-09-10T11:14:11.857Z,101278.84
2023-09-10T11:16:24.749Z,101277.41
2023-09-10T11:18:49.305Z,101274.48
2023-09-10T11:21:02.219Z,101273.70
2023-09-10T11:23:15.208Z,101274.97
2023-09-10T11:25:28.509Z,101269.17
2023-09-10T11:27:41.061Z,101268.70
2023-09-10T11:30:11.145Z,101270.05
2023-09-10T11:32:24.791Z,101271.79
2023-09-10T11:34:46.390Z,101273.67
2023-09-10T11:37:04.786Z,101272.50
2023-09-10T11:39:18.507Z,101270.52
2023-09-10T11:41:32.330Z,101269.23
2023-09-10T11:43:46.107Z,101271.45
2023-09-10T11:45:59.145Z,101267.33
2023-09-10T11:48:12.812Z,101271.77
2023-09-10T11:50:29.664Z,101272.06
2023-09-10T11:52:44.318Z,101278.88
2023-09-10T11:54:58.819Z,101287.66
2023-09-10T11:57:12.311Z,101284.92
2023-09-10T11:59:28.110Z,101285.79
2023-09-10T12:01:40.589Z,101286.98
2023-09-10T12:03:53.244Z,101289.57
2023-09-10T12:06:07.081Z,101292.16
2023-09-10T12:08:19.836Z,101288.67
2023-09-10T12:10:32.854Z,101291.02
2023-09-10T12:12:49.090Z,101289.28
2023-09-10T12:15:02.386Z,101296.38
2023-09-10T12:17:15.522Z,101302.23
2023-09-10T12:19:28.480Z,101303.45
2023-09-10T12:21:41.174Z,101307.48
2023-09-10T12:23:56.131Z,101308.56
2023-09-10T12:26:09.726Z,101311.24
2023-09-10T12:28:22.507Z,101315.34
2023-09-10T12:30:35.263Z,101314.85
2023-09-10T12:32:47.739Z,101318.41
2023-09-10T12:35:01.376Z,101313.27
2023-09-10T12:37:17.195Z,101313.33
2023-09-10T12:39:30.695Z,101308.48
2023-09-10T12:41:43.266Z,101303.73
2023-09-10T12:43:55.591Z,101296.25
2023-09-10T12:46:08.130Z,101296.77
2023-09-10T12:48:21.797Z,101302.67
2023-09-10T12:50:34.338Z,101309.71
2023-09-10T12:52:47.183Z,101309.30
2023-09-10T12:55:02.948Z,101309.45
2023-09-10T12:57:17.671Z,101309.20
2023-09-10T12:59:30.158Z,101303.73
2023-09-10T13:01:45.417Z,101302.53
2023-09-10T13:03:57.809Z,101307.16
2023-09-10T13:06:10.858Z,101308.73
2023-09-10T13:08:23.282Z,101315.64
2023-09-10T13:10:35.663Z,101321.02
2023-09-10T13:12:48.557Z,101322.27
2023-09-10T13:15:01.005Z,101323.79
2023-09-10T13:17:14.131Z,101327.96
2023-09-10T13:19:26.472Z,101336.24
2023-09-10T13:21:38.858Z,101346.17
2023-09-10T13:23:51.403Z,101348.21
2023-09-10T13:26:04.878Z,101358.23
2023-09-10T13:28:17.270Z,101364.09
2023-09-10T13:30:29.793Z,101371.73
2023-09-10T13:32:42.472Z,101370.92
2023-09-10T13:34:54.928Z,101374.65
2023-09-10T13:37:09.369Z,101373.48
2023-09-10T13:39:21.922Z,101374.50
2023-09-10T13:41:34.233Z,101378.36
2023-09-10T13:43:46.863Z,101383.48
2023-09-10T13:45:59.482Z,101390.18
2023-09-10T13:48:12.643Z,101398.15
2023-09-10T13:50:25.189Z,101395.64
2023-09-10T13:52:37.461Z,101389.10
2023-09-10T13:54:50.517Z,101377.83
2023-09-10T13:57:03.310Z,101371.34
2023-09-10T13:59:16.045Z,101370.21
2023-09-10T14:01:28.400Z,101375.34
2023-09-10T14:03:41.311Z,101380.22
2023-09-10T14:05:53.844Z,101386.53
2023-09-10T14:08:06.842Z,101386.36
2023-09-10T14:10:19.279Z,101384.10
2023-09-10T14:12:31.606Z,101385.58
2023-09-10T14:14:44.074Z,101389.48
2023-09-10T14:16:56.426Z,101394.29
2023-09-10T14:19:08.837Z,101401.34
2023-09-10T14:21:22.180Z,101408.53
2023-09-10T14:23:35.571Z,101405.80
2023-09-10T14:25:50.576Z,101405.30
2023-09-10T14:28:03.564Z,101411.84
2023-09-10T14:30:17.165Z,101415.02
2023-09-10T14:32:29.564Z,101427.52
2023-09-10T14:34:42.162Z,101429.36
2023-09-10T14:36:54.845Z,101433.02
2023-09-10T14:39:07.259Z,101439.15
2023-09-10T14:41:19.858Z,101445.23
2023-09-10T14:43:32.753Z,101449.54
2023-09-10T14:45:46.060Z,101448.04
2023-09-10T14:48:00.352Z,101451.02
2023-09-10T14:50:15.133Z,101457.30
2023-09-10T14:52:28.613Z,101465.86
2023-09-10T14:54:40.976Z,101469.23
2023-09-10T14:56:59.563Z,101471.23
2023-09-10T14:59:12.245Z,101474.05
2023-09-10T15:01:24.774Z,101471.34
2023-09-10T15:03:37.236Z,101465.92
2023-09-10T15:05:49.567Z,101468.83
2023-09-10T15:08:01.990Z,101467.27
2023-09-10T15:10:17.024Z,101467.98
2023-09-10T15:12:29.647Z,101468.60
2023-09-10T15:14:41.837Z,101461.99
2023-09-10T15:16:54.139Z,101463.20
2023-09-10T15:19:06.456Z,101470.34
2023-09-10T15:21:19.225Z,101469.41
2023-09-10T15:23:31.821Z,101470.13
2023-09-10T15:25:44.098Z,101469.95
2023-09-10T15:27:56.655Z,101466.58
2023-09-10T15:30:10.956Z,101471.08
2023-09-10T15:32:23.237Z,101472.92
2023-09-10T15:34:35.560Z,101476.59
2023-09-10T15:36:48.073Z,101473.77
2023-09-10T15:39:00.763Z,101466.55
2023-09-10T15:41:13.201Z,101462.48
2023-09-10T15:43:25.538Z,101464.09
2023-09-10T15:45:39.384Z,101461.30
2023-09-10T15:47:52.028Z,101461.09
2023-09-10T15:50:05.093Z,101457.85
2023-09-10T15:52:17.580Z,101458.86
2023-09-10T15:54:30.226Z,101458.32
2023-09-10T15:56:42.646Z,101460.83
2023-09-10T15:58:55.306Z,101463.02
2023-09-10T16:01:08.481Z,101468.99
2023-09-10T16:03:21.740Z,101467.30
2023-09-10T16:05:36.104Z,101466.95
2023-09-10T16:07:49.068Z,101464.69
2023-09-10T16:10:01.590Z,101463.63
2023-09-10T16:12:15.164Z,101471.52
2023-09-10T16:14:27.817Z,101479.59
2023-09-10T16:16:42.604Z,101480.18
2023-09-10T16:19:00.309Z,101483.54
2023-09-10T16:21:13.034Z,101479.17
2023-09-10T16:23:25.645Z,101475.71
2023-09-10T16:25:38.405Z,101478.13
2023-09-10T16:27:51.547Z,101480.05
2023-09-10T16:30:04.494Z,101484.95
2023-09-10T16:32:17.317Z,101481.98
2023-09-10T16:34:30.309Z,101477.23
2023-09-10T16:36:43.325Z,101473.80
2023-09-10T16:38:56.001Z,101473.64
2023-09-10T16:41:08.398Z,101477.16
2023-09-10T16:43:21.332Z,101476.71
2023-09-10T16:45:33.753Z,101478.53
2023-09-10T16:47:46.308Z,101477.63
2023-09-10T16:49:58.897Z,101476.33
2023-09-10T16:52:12.037Z,101476.17
2023-09-10T16:54:24.668Z,101470.39
2023-09-10T16:56:37.242Z,101471.50
2023-09-10T16:58:49.830Z,101473.80
2023-09-10T17:01:02.463Z,101474.67
2023-09-10T17:03:16.149Z,101477.33
2023-09-10T17:05:30.885Z,101478.23
2023-09-10T17:07:45.505Z,101478.81
2023-09-10T17:09:58.190Z,101484.05
2023-09-10T17:12:12.498Z,101480.45
2023-09-10T17:14:25.379Z,101477.67
2023-09-10T17:16:37.729Z,101475.43
2023-09-10T17:18:50.340Z,101475.84
2023-09-10T17:21:03.207Z,101477.03
2023-09-10T17:23:15.884Z,101478.83
2023-09-10T17:25:28.484Z,101481.65
2023-09-10T17:27:41.282Z,101479.09
2023-09-10T17:29:56.544Z,101486.23
2023-09-10T17:32:09.670Z,101486.83
2023-09-10T17:34:22.423Z,101487.48
2023-09-10T17:36:35.419Z,101486.77
2023-09-10T17:38:48.476Z,101481.73
2023-09-10T17:41:01.029Z,101476.97
2023-09-10T17:43:13.553Z,101483.69
2023-09-10T17:45:29.412Z,101485.14
2023-09-10T17:47:43.302Z,101484.80
2023-09-10T17:50:06.264Z,101481.77
2023-09-10T17:52:19.703Z,101485.75
2023-09-10T17:54:32.160Z,101482.42
2023-09-10T17:56:44.929Z,101480.44
2023-09-10T17:58:58.832Z,101474.84
2023-09-10T18:01:11.454Z,101478.20
2023-09-10T18:03:24.114Z,101479.02
2023-09-10T18:05:37.331Z,101476.43
2023-09-10T18:07:50.129Z,101476.50
2023-09-10T18:10:02.679Z,101475.02
2023-09-10T18:12:15.491Z,101469.88
2023-09-10T18:14:28.401Z,101471.89
2023-09-10T18:16:40.797Z,101470.70
2023-09-10T18:18:53.666Z,101466.98
2023-09-10T18:21:05.980Z,101470.45
2023-09-10T18:23:19.618Z,101471.02
2023-09-10T18:25:32.474Z,101469.16
2023-09-10T18:27:44.713Z,101467.75
2023-09-10T18:29:57.333Z,101468.21
2023-09-10T18:32:11.172Z,101467.37
2023-09-10T18:34:23.870Z,101468.88
2023-09-10T18:36:37.226Z,101471.71
2023-09-10T18:38:58.166Z,101466.86
2023-09-10T18:41:10.705Z,101465.55
2023-09-10T18:43:23.363Z,101461.98
2023-09-10T18:45:36.030Z,101460.09
2023-09-10T18:47:52.292Z,101458.82
2023-09-10T18:50:05.242Z,101461.63
2023-09-10T18:52:19.890Z,101458.67
2023-09-10T18:54:32.315Z,101457.70
2023-09-10T18:56:44.752Z,101456.62
2023-09-10T18:58:57.673Z,101459.03
2023-09-10T19:01:09.941Z,101458.58
2023-09-10T19:03:22.401Z,101452.64
2023-09-10T19:05:35.339Z,101449.17
2023-09-10T19:07:47.965Z,101450.04
2023-09-10T19:10:05.200Z,101445.77
2023-09-10T19:12:37.852Z,101446.29
2023-09-10T19:14:50.173Z,101443.28
2023-09-10T19:17:02.964Z,101441.38
2023-09-10T19:19:15.968Z,101438.71
2023-09-10T19:21:28.678Z,101435.88
2023-09-10T19:23:41.841Z,101434.11
2023-09-10T19:25:54.527Z,101438.09
2023-09-10T19:28:06.968Z,101437.48
2023-09-10T19:30:20.934Z,101438.99
2023-09-10T19:32:33.311Z,101437.23
2023-09-10T19:34:46.044Z,101435.45
2023-09-10T19:36:58.297Z,101432.40
2023-09-10T19:39:13.354Z,101430.79
2023-09-10T19:41:26.070Z,101430.47
2023-09-10T19:43:38.857Z,101429.60
2023-09-10T19:45:51.881Z,101431.61
2023-09-10T19:48:04.816Z,101430.08
2023-09-10T19:50:18.345Z,101428.44
2023-09-10T19:52:31.100Z,101429.05
2023-09-10T19:54:44.379Z,101426.67
2023-09-10T19:56:59.020Z,101423.64
2023-09-10T19:59:13.694Z,101423.20
2023-09-10T20:01:26.441Z,101422.70
2023-09-10T20:03:39.348Z,101418.17
2023-09-10T20:05:53.380Z,101422.39
2023-09-10T20:08:05.786Z,101420.55
2023-09-10T20:10:22.640Z,101415.23
2023-09-10T20:12:35.351Z,101414.58
2023-09-10T20:14:48.539Z,101414.36
2023-09-10T20:17:00.950Z,101416.54
2023-09-10T20:19:14.308Z,101408.38
2023-09-10T20:21:27.144Z,101406.34
2023-09-10T20:23:41.375Z,101404.45
2023-09-10T20:25:56.141Z,101405.31
2023-09-10T20:28:09.025Z,101404.52
2023-09-10T20:30:25.905Z,101407.26
2023-09-10T20:32:38.521Z,101403.75
2023-09-10T20:34:51.345Z,101397.04
2023-09-10T20:37:03.755Z,101397.77
2023-09-10T20:39:16.683Z,101397.07
2023-09-10T20:41:29.335Z,101390.39
2023-09-10T20:43:42.340Z,101386.77
2023-09-10T20:45:57.117Z,101384.95
2023-09-10T20:48:10.371Z,101389.73
2023-09-10T20:50:23.373Z,101384.09
2023-09-10T20:52:35.888Z,101387.16
2023-09-10T20:54:48.262Z,101386.08
2023-09-10T20:57:00.982Z,101380.98
2023-09-10T20:59:16.551Z,101379.54
2023-09-10T21:01:29.453Z,101374.94
2023-09-10T21:03:42.442Z,101376.60
2023-09-10T21:05:55.454Z,101371.52
2023-09-10T21:08:08.976Z,101370.85
2023-09-10T21:10:22.464Z,101366.76
2023-09-10T21:12:35.253Z,101366.54
2023-09-10T21:14:48.765Z,101363.59
2023-09-10T21:17:01.462Z,101358.98
2023-09-10T21:19:13.895Z,101353.44
2023-09-10T21:21:26.433Z,101353.91
2023-09-10T21:23:39.553Z,101349.02
2023-09-10T21:26:01.472Z,101347.45
2023-09-10T21:28:14.939Z,101350.33
2023-09-10T21:30:31.366Z,101350.14
2023-09-10T21:32:44.502Z,101348.02
2023-09-10T21:34:58.116Z,101346.95
2023-09-10T21:37:10.722Z,101340.27
2023-09-10T21:39:23.041Z,101337.95
2023-09-10T21:41:36.144Z,101337.73
2023-09-10T21:43:48.881Z,101331.98
2023-09-10T21:46:08.356Z,101331.14
2023-09-10T21:48:21.357Z,101331.71
2023-09-10T21:50:35.089Z,101327.65
2023-09-10T21:52:47.535Z,101324.02
2023-09-10T21:55:00.435Z,101318.59
2023-09-10T21:57:13.314Z,101312.09
2023-09-10T21:59:25.772Z,101309.68
2023-09-10T22:01:38.232Z,101311.17
2023-09-10T22:03:51.177Z,101308.21
2023-09-10T22:06:05.110Z,101307.30
2023-09-10T22:08:18.533Z,101307.09
2023-09-10T22:10:31.490Z,101306.48
2023-09-10T22:12:44.172Z,101303.51
2023-09-10T22:15:05.852Z,101302.59
2023-09-10T22:17:19.346Z,101299.92
2023-09-10T22:19:33.615Z,101298.45
2023-09-10T22:21:47.035Z,101300.11
2023-09-10T22:24:01.951Z,101296.56
2023-09-10T22:26:14.933Z,101293.18
2023-09-10T22:28:28.508Z,101292.83
2023-09-10T22:30:40.992Z,101287.70
2023-09-10T22:32:53.644Z,101286.60
2023-09-10T22:35:06.334Z,101286.98
2023-09-10T22:37:19.187Z,101284.64
2023-09-10T22:39:33.549Z,101282.52
2023-09-10T22:41:45.994Z,101287.99
2023-09-10T22:43:58.624Z,101285.16
2023-09-10T22:46:13.548Z,101279.36
2023-09-10T22:48:27.169Z,101276.58
2023-09-10T22:50:40.092Z,101273.54
2023-09-10T22:52:53.145Z,101274.48
2023-09-10T22:55:05.992Z,101277.48
2023-09-10T22:57:18.933Z,101275.91
2023-09-10T22:59:35.486Z,101272.69
2023-09-10T23:01:51.814Z,101272.60
2023-09-10T23:04:08.232Z,101268.79
2023-09-10T23:06:22.882Z,101266.14
2023-09-10T23:08:37.830Z,101263.73
2023-09-10T23:10:51.262Z,101262.36
2023-09-10T23:13:04.289Z,101262.23
2023-09-10T23:15:18.833Z,101254.77
2023-09-10T23:17:32.637Z,101259.24
2023-09-10T23:19:45.115Z,101259.94
2023-09-10T23:21:57.612Z,101260.59
2023-09-10T23:24:10.621Z,101260.66
2023-09-10T23:26:23.031Z,101255.84
2023-09-10T23:28:35.385Z,101254.75
2023-09-10T23:30:47.951Z,101261.15
2023-09-10T23:33:00.784Z,101258.05
2023-09-10T23:35:15.086Z,101259.58
2023-09-10T23:37:27.999Z,101257.29
2023-09-10T23:39:41.222Z,101254.42
2023-09-10T23:41:53.554Z,101252.58
2023-09-10T23:44:07.000Z,101250.09
2023-09-10T23:46:20.701Z,101252.86
2023-09-10T23:48:34.784Z,101251.14
2023-09-10T23:50:47.620Z,101249.16
2023-09-10T23:53:00.130Z,101242.89
2023-09-10T23:55:15.058Z,101246.93
2023-09-10T23:57:27.437Z,101248.16
2023-09-10T23:59:39.994Z,101248.48
